createdAt,value
2017-09-20T00:01:11.398Z,95325.49
2017-09-20T00:03:39.764Z,95324.36
2017-09-20T00:06:08.119Z,95325.72
2017-09-20T00:08:36.465Z,95323.48
2017-09-20T00:11:04.839Z,95326.62
2017-09-20T00:13:33.199Z,95325.21
2017-09-20T00:16:01.583Z,95328.69
2017-09-20T00:18:29.975Z,95328.73
2017-09-20T00:20:58.360Z,95324.13
2017-09-20T00:23:26.738Z,95318.03
2017-09-20T00:25:55.118Z,95319.77
2017-09-20T00:28:23.526Z,95319.16
2017-09-20T00:30:51.915Z,95326.17
2017-09-20T00:33:20.336Z,95321.70
2017-09-20T00:35:48.692Z,95320.11
2017-09-20T00:38:17.063Z,95320.02
2017-09-20T00:40:45.438Z,95313.12
2017-09-20T00:43:13.783Z,95321.91
2017-09-20T00:45:42.147Z,95318.34
2017-09-20T00:48:10.552Z,95319.68
2017-09-20T00:50:38.904Z,95315.20
2017-09-20T00:53:07.292Z,95316.25
2017-09-20T00:55:35.640Z,95322.77
2017-09-20T00:58:04.031Z,95320.39
2017-09-20T01:00:32.666Z,95317.53
2017-09-20T01:03:01.411Z,95319.70
2017-09-20T01:05:29.789Z,95320.74
2017-09-20T01:07:58.205Z,95328.64
2017-09-20T01:10:26.574Z,95328.69
2017-09-20T01:12:54.947Z,95326.92
2017-09-20T01:15:23.391Z,95330.67
2017-09-20T01:17:51.958Z,95329.39
2017-09-20T01:20:32.439Z,95322.30
2017-09-20T01:23:12.870Z,95325.12
2017-09-20T01:25:41.215Z,95324.78
2017-09-20T01:28:09.700Z,95309.23
2017-09-20T01:30:38.079Z,95312.28
2017-09-20T01:33:06.463Z,95322.09
2017-09-20T01:35:34.879Z,95317.33
2017-09-20T01:38:03.227Z,95321.98
2017-09-20T01:40:31.663Z,95329.45
2017-09-20T01:43:00.034Z,95322.48
2017-09-20T01:45:28.382Z,95325.70
2017-09-20T01:47:56.807Z,95312.68
2017-09-20T01:50:25.175Z,95311.05
2017-09-20T01:52:53.543Z,95313.17
2017-09-20T01:55:21.927Z,95302.62
2017-09-20T01:57:50.307Z,95296.10
2017-09-20T02:00:18.683Z,95290.41
2017-09-20T02:02:47.063Z,95295.56
2017-09-20T02:05:15.431Z,95309.23
2017-09-20T02:07:43.813Z,95305.44
2017-09-20T02:10:12.203Z,95300.83
2017-09-20T02:12:40.642Z,95305.87
2017-09-20T02:15:09.000Z,95302.84
2017-09-20T02:17:37.535Z,95303.24
2017-09-20T02:20:05.919Z,95301.80
2017-09-20T02:22:34.266Z,95302.67
2017-09-20T02:25:02.651Z,95298.47
2017-09-20T02:27:31.010Z,95300.27
2017-09-20T02:29:59.390Z,95297.24
2017-09-20T02:32:27.744Z,95301.95
2017-09-20T02:34:56.110Z,95307.34
2017-09-20T02:37:24.479Z,95297.13
2017-09-20T02:39:52.908Z,95297.02
2017-09-20T02:42:21.287Z,95296.07
2017-09-20T02:44:49.631Z,95299.80
2017-09-20T02:47:18.115Z,95299.80
2017-09-20T02:49:46.467Z,95298.64
2017-09-20T02:52:14.971Z,95290.88
2017-09-20T02:54:43.404Z,95298.14
2017-09-20T02:57:11.785Z,95292.80
2017-09-20T02:59:40.141Z,95290.95
2017-09-20T03:02:08.523Z,95299.76
2017-09-20T03:04:36.875Z,95304.65
2017-09-20T03:07:05.223Z,95296.06
2017-09-20T03:09:33.643Z,95302.91
2017-09-20T03:12:02.004Z,95299.14
2017-09-20T03:14:30.426Z,95299.38
2017-09-20T03:16:58.783Z,95296.39
2017-09-20T03:19:27.152Z,95302.19
2017-09-20T03:21:55.591Z,95297.53
2017-09-20T03:24:23.987Z,95302.00
2017-09-20T03:26:52.377Z,95297.95
2017-09-20T03:29:20.883Z,95305.05
2017-09-20T03:31:49.239Z,95304.41
2017-09-20T03:34:17.582Z,95303.52
2017-09-20T03:36:46.042Z,95303.23
2017-09-20T03:39:14.396Z,95304.24
2017-09-20T03:41:42.742Z,95302.56
2017-09-20T03:44:11.115Z,95309.20
2017-09-20T03:46:39.459Z,95309.47
2017-09-20T03:49:07.855Z,95308.52
2017-09-20T03:51:36.200Z,95301.05
2017-09-20T03:54:04.572Z,95306.52
2017-09-20T03:56:32.919Z,95297.06
2017-09-20T03:59:01.299Z,95302.51
2017-09-20T04:01:29.651Z,95307.33
2017-09-20T04:03:58.057Z,95304.97
2017-09-20T04:06:26.450Z,95308.13
2017-09-20T04:08:54.790Z,95305.30
2017-09-20T04:11:23.171Z,95304.48
2017-09-20T04:13:51.529Z,95310.98
2017-09-20T04:16:19.897Z,95303.69
2017-09-20T04:18:48.243Z,95311.55
2017-09-20T04:21:16.630Z,95311.09
2017-09-20T04:23:44.971Z,95310.48
2017-09-20T04:26:13.398Z,95312.23
2017-09-20T04:28:41.866Z,95311.17
2017-09-20T04:31:10.226Z,95315.48
2017-09-20T04:33:38.572Z,95310.14
2017-09-20T04:36:17.026Z,95308.56
2017-09-20T04:38:45.393Z,95311.89
2017-09-20T04:41:13.763Z,95318.80
2017-09-20T04:43:42.132Z,95311.17
2017-09-20T04:46:10.495Z,95311.34
2017-09-20T04:48:38.894Z,95313.91
2017-09-20T04:51:07.227Z,95318.63
2017-09-20T04:53:35.575Z,95320.02
2017-09-20T04:56:03.915Z,95318.22
2017-09-20T04:58:32.271Z,95318.74
2017-09-20T05:01:00.649Z,95321.94
2017-09-20T05:03:28.995Z,95319.90
2017-09-20T05:05:57.363Z,95329.72
2017-09-20T05:08:25.702Z,95333.88
2017-09-20T05:10:54.070Z,95329.11
2017-09-20T05:13:22.411Z,95337.70
2017-09-20T05:15:50.795Z,95339.27
2017-09-20T05:18:19.131Z,95343.42
2017-09-20T05:20:47.504Z,95353.59
2017-09-20T05:23:15.847Z,95350.45
2017-09-20T05:25:44.182Z,95356.17
2017-09-20T05:28:12.530Z,95351.55
2017-09-20T05:30:40.907Z,95346.95
2017-09-20T05:33:09.250Z,95349.16
2017-09-20T05:35:37.590Z,95354.27
2017-09-20T05:38:05.982Z,95353.03
2017-09-20T05:40:34.340Z,95358.92
2017-09-20T05:43:02.915Z,95356.89
2017-09-20T05:45:31.355Z,95361.73
2017-09-20T05:47:59.730Z,95368.17
2017-09-20T05:50:28.093Z,95364.70
2017-09-20T05:52:56.604Z,95370.48
2017-09-20T05:55:24.947Z,95367.30
2017-09-20T05:57:53.290Z,95373.29
2017-09-20T06:00:21.639Z,95371.76
2017-09-20T06:02:50.110Z,95368.68
2017-09-20T06:05:18.455Z,95366.49
2017-09-20T06:07:46.790Z,95356.23
2017-09-20T06:10:15.143Z,95358.75
2017-09-20T06:12:43.482Z,95357.80
2017-09-20T06:15:11.852Z,95369.31
2017-09-20T06:17:40.255Z,95362.39
2017-09-20T06:20:08.628Z,95368.67
2017-09-20T06:22:36.979Z,95371.87
2017-09-20T06:25:05.354Z,95375.97
2017-09-20T06:27:33.695Z,95376.21
2017-09-20T06:30:02.195Z,95381.61
2017-09-20T06:32:30.530Z,95379.91
2017-09-20T06:34:58.915Z,95379.91
2017-09-20T06:37:27.242Z,95373.69
2017-09-20T06:39:55.651Z,95383.22
2017-09-20T06:42:24.142Z,95382.22
2017-09-20T06:44:52.477Z,95380.94
2017-09-20T06:47:20.822Z,95375.31
2017-09-20T06:49:49.195Z,95377.95
2017-09-20T06:52:17.577Z,95384.76
2017-09-20T06:54:45.930Z,95392.66
2017-09-20T06:57:14.388Z,95384.40
2017-09-20T06:59:42.945Z,95387.38
2017-09-20T07:02:11.295Z,95388.68
2017-09-20T07:04:39.677Z,95384.48
2017-09-20T07:07:08.031Z,95389.63
2017-09-20T07:09:36.384Z,95389.17
2017-09-20T07:12:04.728Z,95390.48
2017-09-20T07:14:33.070Z,95397.66
2017-09-20T07:17:01.455Z,95395.49
2017-09-20T07:19:29.839Z,95396.45
2017-09-20T07:21:58.203Z,95400.77
2017-09-20T07:24:26.678Z,95402.53
2017-09-20T07:26:55.151Z,95408.20
2017-09-20T07:29:23.499Z,95412.52
2017-09-20T07:31:51.843Z,95411.11
2017-09-20T07:34:20.187Z,95415.45
2017-09-20T07:36:48.538Z,95419.83
2017-09-20T07:39:16.928Z,95410.91
2017-09-20T07:41:45.275Z,95407.59
2017-09-20T07:44:13.750Z,95410.17
2017-09-20T07:46:42.159Z,95406.69
2017-09-20T07:49:10.507Z,95409.21
2017-09-20T07:51:38.911Z,95412.47
2017-09-20T07:54:07.258Z,95407.30
2017-09-20T07:56:35.594Z,95408.28
2017-09-20T07:59:03.958Z,95408.19
2017-09-20T08:01:32.307Z,95419.05
2017-09-20T08:04:00.655Z,95414.61
2017-09-20T08:06:28.994Z,95408.05
2017-09-20T08:08:57.396Z,95410.56
2017-09-20T08:11:25.749Z,95412.52
2017-09-20T08:13:54.120Z,95409.27
2017-09-20T08:16:22.478Z,95403.11
2017-09-20T08:18:50.818Z,95403.75
2017-09-20T08:21:19.183Z,95405.22
2017-09-20T08:23:47.519Z,95400.92
2017-09-20T08:26:15.879Z,95407.48
2017-09-20T08:28:44.228Z,95406.22
2017-09-20T08:31:12.604Z,95411.74
2017-09-20T08:33:40.952Z,95420.45
2017-09-20T08:36:09.283Z,95412.43
2017-09-20T08:38:37.613Z,95418.94
2017-09-20T08:41:05.985Z,95417.42
2017-09-20T08:43:34.315Z,95422.92
2017-09-20T08:46:02.654Z,95418.19
2017-09-20T08:48:30.994Z,95413.21
2017-09-20T08:50:59.370Z,95419.16
2017-09-20T08:53:27.752Z,95423.02
2017-09-20T08:55:56.110Z,95428.55
2017-09-20T08:58:24.452Z,95429.27
2017-09-20T09:00:52.786Z,95429.66
2017-09-20T09:03:21.111Z,95428.69
2017-09-20T09:05:49.585Z,95426.10
2017-09-20T09:08:17.918Z,95429.12
2017-09-20T09:10:46.255Z,95430.30
2017-09-20T09:13:14.585Z,95427.94
2017-09-20T09:15:42.923Z,95434.81
2017-09-20T09:18:11.298Z,95434.66
2017-09-20T09:20:39.690Z,95436.23
2017-09-20T09:23:08.054Z,95435.46
2017-09-20T09:25:36.702Z,95429.45
2017-09-20T09:28:09.345Z,95425.63
2017-09-20T09:30:39.025Z,95421.59
2017-09-20T09:33:11.209Z,95425.77
2017-09-20T09:35:44.401Z,95423.39
2017-09-20T09:38:19.818Z,95424.98
2017-09-20T09:40:49.696Z,95421.97
2017-09-20T09:43:21.998Z,95426.37
2017-09-20T09:45:53.629Z,95425.66
2017-09-20T09:48:25.540Z,95426.23
2017-09-20T09:50:57.919Z,95423.83
2017-09-20T09:53:26.709Z,95428.00
2017-09-20T09:55:56.573Z,95432.19
2017-09-20T09:58:25.526Z,95428.20
2017-09-20T10:00:58.673Z,95434.56
2017-09-20T10:03:27.391Z,95429.38
2017-09-20T10:05:59.165Z,95434.87
2017-09-20T10:08:33.609Z,95434.58
2017-09-20T10:11:02.983Z,95434.32
2017-09-20T10:13:32.505Z,95430.77
2017-09-20T10:16:03.297Z,95437.41
2017-09-20T10:18:34.004Z,95433.13
2017-09-20T10:21:26.235Z,95432.46
2017-09-20T10:23:54.858Z,95434.97
2017-09-20T10:26:29.798Z,95433.20
2017-09-20T10:29:00.614Z,95430.42
2017-09-20T10:31:29.585Z,95431.56
2017-09-20T10:33:59.057Z,95432.17
2017-09-20T10:36:31.134Z,95434.23
2017-09-20T10:39:01.064Z,95434.84
2017-09-20T10:41:30.077Z,95432.81
2017-09-20T10:43:58.406Z,95435.50
2017-09-20T10:46:26.797Z,95435.97
2017-09-20T10:48:55.294Z,95433.02
2017-09-20T10:51:23.634Z,95428.97
2017-09-20T10:53:52.007Z,95429.47
2017-09-20T10:56:20.335Z,95430.08
2017-09-20T10:58:48.722Z,95430.30
2017-09-20T11:01:17.066Z,95428.81
2017-09-20T11:03:57.132Z,95431.80
2017-09-20T11:06:32.402Z,95426.73
2017-09-20T11:09:00.734Z,95430.61
2017-09-20T11:11:29.078Z,95428.33
2017-09-20T11:13:57.421Z,95422.48
2017-09-20T11:16:25.786Z,95423.53
2017-09-20T11:18:54.129Z,95426.38
2017-09-20T11:21:22.482Z,95418.58
2017-09-20T11:23:50.906Z,95421.58
2017-09-20T11:26:19.238Z,95415.07
2017-09-20T11:28:47.579Z,95415.30
2017-09-20T11:31:15.911Z,95417.52
2017-09-20T11:33:44.255Z,95408.53
2017-09-20T11:36:12.623Z,95415.20
2017-09-20T11:38:40.966Z,95421.25
2017-09-20T11:41:09.310Z,95421.20
2017-09-20T11:43:37.646Z,95419.00
2017-09-20T11:46:05.988Z,95412.30
2017-09-20T11:48:34.335Z,95410.50
2017-09-20T11:51:02.695Z,95411.40
2017-09-20T11:53:31.934Z,95406.28
2017-09-20T11:56:00.306Z,95407.38
2017-09-20T11:58:28.642Z,95398.55
2017-09-20T12:00:56.982Z,95407.66
2017-09-20T12:03:25.352Z,95400.93
2017-09-20T12:05:53.690Z,95389.97
2017-09-20T12:08:22.027Z,95392.16
2017-09-20T12:10:50.380Z,95394.26
2017-09-20T12:13:18.915Z,95391.98
2017-09-20T12:15:47.252Z,95395.45
2017-09-20T12:18:15.596Z,95391.61
2017-09-20T12:20:43.930Z,95397.14
2017-09-20T12:23:12.267Z,95391.02
2017-09-20T12:25:40.731Z,95391.53
2017-09-20T12:28:09.083Z,95387.13
2017-09-20T12:30:37.783Z,95391.11
2017-09-20T12:33:06.112Z,95390.56
2017-09-20T12:35:34.442Z,95383.86
2017-09-20T12:38:02.819Z,95387.73
2017-09-20T12:40:31.151Z,95379.42
2017-09-20T12:42:59.488Z,95384.61
2017-09-20T12:45:27.835Z,95378.67
2017-09-20T12:48:09.006Z,95376.73
2017-09-20T12:50:37.479Z,95371.44
2017-09-20T12:53:05.811Z,95371.16
2017-09-20T12:55:34.150Z,95370.69
2017-09-20T12:58:02.490Z,95373.13
2017-09-20T13:00:30.855Z,95380.64
2017-09-20T13:02:59.190Z,95369.67
2017-09-20T13:05:27.523Z,95377.83
2017-09-20T13:07:55.926Z,95374.22
2017-09-20T13:10:24.292Z,95378.48
2017-09-20T13:12:52.627Z,95376.11
2017-09-20T13:15:20.958Z,95374.89
2017-09-20T13:17:49.294Z,95377.44
2017-09-20T13:20:17.633Z,95375.52
2017-09-20T13:22:46.065Z,95374.91
2017-09-20T13:25:14.936Z,95377.08
2017-09-20T13:27:43.368Z,95379.30
2017-09-20T13:30:11.732Z,95376.59
2017-09-20T13:32:40.101Z,95379.13
2017-09-20T13:35:08.474Z,95379.98
2017-09-20T13:37:37.707Z,95377.48
2017-09-20T13:40:06.084Z,95374.37
2017-09-20T13:42:34.683Z,95370.50
2017-09-20T13:45:03.050Z,95373.98
2017-09-20T13:47:31.395Z,95371.80
2017-09-20T13:49:59.747Z,95375.38
2017-09-20T13:52:28.154Z,95373.49
2017-09-20T13:54:56.499Z,95365.12
2017-09-20T13:57:24.866Z,95373.36
2017-09-20T13:59:53.213Z,95369.12
2017-09-20T14:02:21.580Z,95363.41
2017-09-20T14:04:49.939Z,95359.05
2017-09-20T14:07:18.324Z,95361.50
2017-09-20T14:09:46.667Z,95359.64
2017-09-20T14:12:15.019Z,95357.71
2017-09-20T14:14:43.362Z,95358.14
2017-09-20T14:17:11.727Z,95355.34
2017-09-20T14:19:40.062Z,95365.83
2017-09-20T14:22:08.411Z,95361.80
2017-09-20T14:24:36.788Z,95361.42
2017-09-20T14:27:05.165Z,95361.53
2017-09-20T14:29:33.534Z,95363.83
2017-09-20T14:32:02.778Z,95364.28
2017-09-20T14:34:31.147Z,95366.55
2017-09-20T14:36:59.545Z,95365.38
2017-09-20T14:39:27.883Z,95366.20
2017-09-20T14:41:56.278Z,95368.68
2017-09-20T14:44:24.674Z,95368.47
2017-09-20T14:46:53.011Z,95369.67
2017-09-20T14:49:21.366Z,95369.46
2017-09-20T14:51:49.745Z,95363.77
2017-09-20T14:54:18.091Z,95366.15
2017-09-20T14:56:46.471Z,95366.66
2017-09-20T14:59:14.819Z,95366.42
2017-09-20T15:01:43.172Z,95368.70
2017-09-20T15:04:11.530Z,95368.33
2017-09-20T15:06:39.999Z,95372.52
2017-09-20T15:09:08.348Z,95377.75
2017-09-20T15:11:36.767Z,95369.43
2017-09-20T15:14:05.102Z,95367.37
2017-09-20T15:16:33.611Z,95367.84
2017-09-20T15:19:02.051Z,95368.28
2017-09-20T15:21:30.401Z,95368.75
2017-09-20T15:23:58.870Z,95373.44
2017-09-20T15:26:27.218Z,95364.81
2017-09-20T15:28:55.598Z,95367.43
2017-09-20T15:31:23.954Z,95367.70
2017-09-20T15:33:52.355Z,95374.84
2017-09-20T15:36:20.691Z,95371.41
2017-09-20T15:38:49.039Z,95375.23
2017-09-20T15:41:17.418Z,95377.84
2017-09-20T15:43:46.635Z,95377.44
2017-09-20T15:46:15.032Z,95382.17
2017-09-20T15:48:43.382Z,95383.07
2017-09-20T15:51:11.767Z,95380.91
2017-09-20T15:53:40.118Z,95383.24
2017-09-20T15:56:08.495Z,95387.78
2017-09-20T15:58:36.848Z,95379.18
2017-09-20T16:01:13.974Z,95381.52
2017-09-20T16:03:42.351Z,95380.13
2017-09-20T16:06:10.727Z,95383.13
2017-09-20T16:08:39.083Z,95378.45
2017-09-20T16:11:07.467Z,95381.44
2017-09-20T16:13:54.586Z,95380.78
2017-09-20T16:16:22.964Z,95381.59
2017-09-20T16:18:51.317Z,95384.77
2017-09-20T16:21:19.661Z,95382.66
2017-09-20T16:23:48.004Z,95381.92
2017-09-20T16:26:16.379Z,95388.18
2017-09-20T16:28:44.789Z,95381.15
2017-09-20T16:31:13.126Z,95385.34
2017-09-20T16:33:41.547Z,95383.86
2017-09-20T16:36:09.922Z,95386.26
2017-09-20T16:38:38.318Z,95393.47
2017-09-20T16:41:06.722Z,95385.82
2017-09-20T16:43:35.068Z,95390.44
2017-09-20T16:46:03.438Z,95400.55
2017-09-20T16:48:31.785Z,95404.30
2017-09-20T16:51:00.144Z,95395.37
2017-09-20T16:53:28.502Z,95400.52
2017-09-20T16:55:56.854Z,95405.14
2017-09-20T16:58:25.199Z,95406.63
2017-09-20T17:00:53.543Z,95408.54
2017-09-20T17:03:22.055Z,95404.14
2017-09-20T17:05:50.408Z,95412.41
2017-09-20T17:08:18.755Z,95415.78
2017-09-20T17:10:47.126Z,95413.28
2017-09-20T17:13:15.492Z,95416.28
2017-09-20T17:15:43.858Z,95414.90
2017-09-20T17:18:12.242Z,95419.66
2017-09-20T17:20:40.606Z,95412.44
2017-09-20T17:23:08.946Z,95421.44
2017-09-20T17:25:37.321Z,95420.14
2017-09-20T17:28:05.667Z,95424.86
2017-09-20T17:30:34.024Z,95424.73
2017-09-20T17:33:02.362Z,95419.64
2017-09-20T17:35:30.751Z,95428.94
2017-09-20T17:37:59.110Z,95438.03
2017-09-20T17:40:27.485Z,95439.50
2017-09-20T17:42:55.823Z,95442.37
2017-09-20T17:45:24.186Z,95436.73
2017-09-20T17:47:52.560Z,95438.98
2017-09-20T17:50:21.171Z,95442.69
2017-09-20T17:55:23.943Z,95449.22
2017-09-20T17:57:52.286Z,95443.73
2017-09-20T18:00:21.731Z,95450.96
2017-09-20T18:02:50.066Z,95448.73
2017-09-20T18:05:18.446Z,95449.03
2017-09-20T18:07:46.806Z,95451.66
2017-09-20T18:10:15.153Z,95456.52
2017-09-20T18:12:43.493Z,95455.84
2017-09-20T18:15:11.844Z,95460.88
2017-09-20T18:17:40.203Z,95458.77
2017-09-20T18:20:08.553Z,95462.89
2017-09-20T18:22:36.903Z,95462.81
2017-09-20T18:25:05.246Z,95461.40
2017-09-20T18:27:33.627Z,95472.19
2017-09-20T18:30:01.976Z,95466.83
2017-09-20T18:32:30.320Z,95472.22
2017-09-20T18:34:58.662Z,95477.89
2017-09-20T18:37:27.016Z,95473.97
2017-09-20T18:39:55.354Z,95476.09
2017-09-20T18:42:23.702Z,95469.09
2017-09-20T18:44:52.077Z,95464.67
2017-09-20T18:47:20.416Z,95462.66
2017-09-20T18:49:48.797Z,95467.42
2017-09-20T18:52:17.181Z,95466.02
2017-09-20T18:54:45.782Z,95469.14
2017-09-20T18:57:14.145Z,95467.89
2017-09-20T18:59:42.484Z,95467.84
2017-09-20T19:02:10.834Z,95464.75
2017-09-20T19:04:39.170Z,95462.55
2017-09-20T19:07:07.513Z,95466.05
2017-09-20T19:09:36.070Z,95469.47
2017-09-20T19:12:04.418Z,95472.80
2017-09-20T19:14:32.786Z,95478.11
2017-09-20T19:17:01.144Z,95476.04
2017-09-20T19:19:29.527Z,95478.54
2017-09-20T19:21:57.878Z,95470.09
2017-09-20T19:24:26.236Z,95476.04
2017-09-20T19:26:54.613Z,95477.95
2017-09-20T19:29:22.951Z,95474.10
2017-09-20T19:31:51.297Z,95470.84
2017-09-20T19:34:19.711Z,95477.83
2017-09-20T19:36:48.122Z,95472.50
2017-09-20T19:39:16.475Z,95475.70
2017-09-20T19:41:44.920Z,95472.71
2017-09-20T19:44:13.256Z,95476.75
2017-09-20T19:46:41.710Z,95477.79
2017-09-20T19:49:10.056Z,95475.09
2017-09-20T19:51:38.440Z,95478.99
2017-09-20T19:54:06.795Z,95475.61
2017-09-20T19:56:35.146Z,95475.52
2017-09-20T19:59:03.525Z,95479.11
2017-09-20T20:01:31.882Z,95481.17
2017-09-20T20:04:01.274Z,95480.72
2017-09-20T20:06:30.142Z,95477.14
2017-09-20T20:08:58.527Z,95473.87
2017-09-20T20:11:26.875Z,95470.70
2017-09-20T20:13:55.219Z,95473.67
2017-09-20T20:16:23.611Z,95468.73
2017-09-20T20:18:51.968Z,95475.23
2017-09-20T20:21:20.311Z,95469.20
2017-09-20T20:23:48.744Z,95472.39
2017-09-20T20:26:17.107Z,95469.69
2017-09-20T20:28:45.455Z,95472.28
2017-09-20T20:31:13.814Z,95468.93
2017-09-20T20:33:42.161Z,95467.81
2017-09-20T20:36:10.541Z,95475.83
2017-09-20T20:38:38.890Z,95482.13
2017-09-20T20:41:07.255Z,95481.42
2017-09-20T20:43:35.631Z,95488.28
2017-09-20T20:46:04.011Z,95489.19
2017-09-20T20:48:32.362Z,95482.66
2017-09-20T20:51:00.700Z,95479.36
2017-09-20T20:53:29.042Z,95487.36
2017-09-20T20:55:57.415Z,95488.83
2017-09-20T20:58:25.773Z,95488.41
2017-09-20T21:00:54.129Z,95483.20
2017-09-20T21:03:22.464Z,95487.13
2017-09-20T21:05:50.806Z,95483.45
2017-09-20T21:08:19.174Z,95478.03
2017-09-20T21:10:47.529Z,95479.55
2017-09-20T21:13:15.863Z,95483.20
2017-09-20T21:15:44.247Z,95484.03
2017-09-20T21:18:12.602Z,95488.71
2017-09-20T21:20:40.983Z,95495.08
2017-09-20T21:23:09.347Z,95490.20
2017-09-20T21:25:37.702Z,95482.58
2017-09-20T21:28:06.104Z,95485.38
2017-09-20T21:30:34.443Z,95485.98
2017-09-20T21:33:03.265Z,95494.03
2017-09-20T21:35:31.602Z,95490.80
2017-09-20T21:37:59.942Z,95486.89
2017-09-20T21:40:28.379Z,95488.27
2017-09-20T21:42:56.771Z,95489.07
2017-09-20T21:45:25.105Z,95495.66
2017-09-20T21:47:53.551Z,95495.42
2017-09-20T21:50:21.893Z,95498.21
2017-09-20T21:52:50.239Z,95501.95
2017-09-20T21:55:18.583Z,95496.54
2017-09-20T21:57:47.018Z,95496.55
2017-09-20T22:00:15.350Z,95499.11
2017-09-20T22:02:43.692Z,95498.60
2017-09-20T22:05:12.059Z,95490.91
2017-09-20T22:07:40.400Z,95493.19
2017-09-20T22:10:08.766Z,95492.97
2017-09-20T22:12:37.166Z,95488.66
2017-09-20T22:15:17.638Z,95495.97
2017-09-20T22:18:03.895Z,95496.65
2017-09-20T22:20:50.315Z,95499.03
2017-09-20T22:23:36.696Z,95500.00
2017-09-20T22:26:23.022Z,95504.95
2017-09-20T22:28:57.369Z,95500.70
2017-09-20T22:31:25.737Z,95500.53
2017-09-20T22:33:54.078Z,95498.34
2017-09-20T22:36:22.547Z,95500.41
2017-09-20T22:38:50.883Z,95495.84
2017-09-20T22:41:19.290Z,95494.28
2017-09-20T22:43:47.659Z,95492.20
2017-09-20T22:46:16.002Z,95491.31
2017-09-20T22:48:44.344Z,95488.27
2017-09-20T22:51:12.716Z,95494.28
2017-09-20T22:53:41.086Z,95492.42
2017-09-20T22:56:09.450Z,95493.03
2017-09-20T22:58:37.832Z,95486.30
2017-09-20T23:01:06.167Z,95486.87
2017-09-20T23:03:34.515Z,95488.36
2017-09-20T23:06:02.856Z,95493.67
2017-09-20T23:08:31.216Z,95491.14
2017-09-20T23:10:59.579Z,95488.86
2017-09-20T23:13:27.918Z,95490.53
2017-09-20T23:15:56.299Z,95491.63
2017-09-20T23:18:24.647Z,95494.00
2017-09-20T23:20:52.982Z,95498.02
2017-09-20T23:23:21.343Z,95507.41
2017-09-20T23:25:49.708Z,95506.43
2017-09-20T23:28:18.215Z,95509.37
2017-09-20T23:30:46.603Z,95500.28
2017-09-20T23:33:14.958Z,95505.91
2017-09-20T23:35:43.299Z,95504.52
2017-09-20T23:38:11.644Z,95493.97
2017-09-20T23:40:40.003Z,95494.75
2017-09-20T23:43:08.342Z,95490.33
2017-09-20T23:45:36.712Z,95488.73
2017-09-20T23:48:05.059Z,95490.92
2017-09-20T23:50:33.395Z,95492.02
2017-09-20T23:53:01.802Z,95494.66
2017-09-20T23:55:30.145Z,95492.19
2017-09-20T23:57:58.547Z,95482.69
